sensor_id;sensor_type;location;lat;lon;timestamp;temperature;humidity
67131;HTU21D;54051;53.464;49.532;2022-09-09T00:00:21;11.05;81.40
67131;HTU21D;54051;53.464;49.532;2022-09-09T00:02:55;11.07;82.13
67131;HTU21D;54051;53.464;49.532;2022-09-09T00:08:04;11.13;82.25
67131;HTU21D;54051;53.464;49.532;2022-09-09T00:10:33;11.20;81.17
67131;HTU21D;54051;53.464;49.532;2022-09-09T00:16:00;11.31;80.02
67131;HTU21D;54051;53.464;49.532;2022-09-09T00:21:14;11.41;80.88
67131;HTU21D;54051;53.464;49.532;2022-09-09T00:23:50;11.28;83.14
67131;HTU21D;54051;53.464;49.532;2022-09-09T00:31:34;11.04;84.22
67131;HTU21D;54051;53.464;49.532;2022-09-09T00:34:09;11.09;82.96
67131;HTU21D;54051;53.464;49.532;2022-09-09T00:36:39;11.03;83.15
67131;HTU21D;54051;53.464;49.532;2022-09-09T00:39:05;11.08;83.84
67131;HTU21D;54051;53.464;49.532;2022-09-09T00:44:36;11.15;85.03
67131;HTU21D;54051;53.464;49.532;2022-09-09T00:47:24;11.10;84.99
67131;HTU21D;54051;53.464;49.532;2022-09-09T00:56:16;11.00;84.34
67131;HTU21D;54051;53.464;49.532;2022-09-09T00:58:55;11.01;83.95
67131;HTU21D;54051;53.464;49.532;2022-09-09T01:01:24;11.00;84.87
67131;HTU21D;54051;53.464;49.532;2022-09-09T01:03:55;11.00;84.44
67131;HTU21D;54051;53.464;49.532;2022-09-09T01:14:49;10.87;84.23
67131;HTU21D;54051;53.464;49.532;2022-09-09T01:17:27;10.92;85.22
67131;HTU21D;54051;53.464;49.532;2022-09-09T01:19:59;10.96;84.35
67131;HTU21D;54051;53.464;49.532;2022-09-09T01:28:34;10.88;84.26
67131;HTU21D;54051;53.464;49.532;2022-09-09T01:31:04;10.92;85.15
67131;HTU21D;54051;53.464;49.532;2022-09-09T01:33:31;10.92;84.19
67131;HTU21D;54051;53.464;49.532;2022-09-09T01:36:02;10.89;84.30
67131;HTU21D;54051;53.464;49.532;2022-09-09T01:38:31;10.83;84.48
67131;HTU21D;54051;53.464;49.532;2022-09-09T01:40:58;10.88;85.55
67131;HTU21D;54051;53.464;49.532;2022-09-09T01:43:25;10.90;84.18
67131;HTU21D;54051;53.464;49.532;2022-09-09T01:45:59;10.83;84.58
67131;HTU21D;54051;53.464;49.532;2022-09-09T01:48:27;10.79;84.00
67131;HTU21D;54051;53.464;49.532;2022-09-09T01:50:53;10.77;84.97
67131;HTU21D;54051;53.464;49.532;2022-09-09T01:53:21;10.74;85.32
67131;HTU21D;54051;53.464;49.532;2022-09-09T02:04:18;10.82;83.04
67131;HTU21D;54051;53.464;49.532;2022-09-09T02:06:48;10.82;83.87
67131;HTU21D;54051;53.464;49.532;2022-09-09T02:09:17;10.81;84.10
67131;HTU21D;54051;53.464;49.532;2022-09-09T02:11:46;10.79;83.60
67131;HTU21D;54051;53.464;49.532;2022-09-09T02:14:17;10.79;83.84
67131;HTU21D;54051;53.464;49.532;2022-09-09T02:16:54;10.81;83.65
67131;HTU21D;54051;53.464;49.532;2022-09-09T02:19:45;10.75;83.79
67131;HTU21D;54051;53.464;49.532;2022-09-09T02:22:12;10.70;83.39
67131;HTU21D;54051;53.464;49.532;2022-09-09T02:24:39;10.74;83.63
67131;HTU21D;54051;53.464;49.532;2022-09-09T02:27:08;10.79;84.08
67131;HTU21D;54051;53.464;49.532;2022-09-09T02:29:43;10.82;83.37
67131;HTU21D;54051;53.464;49.532;2022-09-09T02:32:20;10.87;83.39
67131;HTU21D;54051;53.464;49.532;2022-09-09T02:34:54;10.90;82.39
67131;HTU21D;54051;53.464;49.532;2022-09-09T02:37:25;10.92;82.38
67131;HTU21D;54051;53.464;49.532;2022-09-09T02:39:54;10.84;82.10
67131;HTU21D;54051;53.464;49.532;2022-09-09T02:42:21;10.86;82.87
67131;HTU21D;54051;53.464;49.532;2022-09-09T02:44:47;10.90;82.82
67131;HTU21D;54051;53.464;49.532;2022-09-09T02:47:31;10.92;82.80
67131;HTU21D;54051;53.464;49.532;2022-09-09T02:50:19;10.94;82.49
67131;HTU21D;54051;53.464;49.532;2022-09-09T02:53:12;10.93;82.50
67131;HTU21D;54051;53.464;49.532;2022-09-09T02:55:47;10.99;81.80
67131;HTU21D;54051;53.464;49.532;2022-09-09T02:58:16;11.07;82.07
67131;HTU21D;54051;53.464;49.532;2022-09-09T03:00:45;11.14;80.98
67131;HTU21D;54051;53.464;49.532;2022-09-09T03:03:12;11.22;80.87
67131;HTU21D;54051;53.464;49.532;2022-09-09T03:05:38;11.23;80.52
67131;HTU21D;54051;53.464;49.532;2022-09-09T03:08:05;11.32;80.46
67131;HTU21D;54051;53.464;49.532;2022-09-09T03:10:35;11.44;80.85
67131;HTU21D;54051;53.464;49.532;2022-09-09T03:13:03;11.45;80.85
67131;HTU21D;54051;53.464;49.532;2022-09-09T03:15:33;11.52;80.48
67131;HTU21D;54051;53.464;49.532;2022-09-09T03:17:59;11.53;78.95
67131;HTU21D;54051;53.464;49.532;2022-09-09T03:20:26;11.55;80.44
67131;HTU21D;54051;53.464;49.532;2022-09-09T03:22:53;11.61;80.15
67131;HTU21D;54051;53.464;49.532;2022-09-09T03:25:20;11.60;80.00
67131;HTU21D;54051;53.464;49.532;2022-09-09T03:27:46;11.55;79.62
67131;HTU21D;54051;53.464;49.532;2022-09-09T03:30:12;11.53;79.81
67131;HTU21D;54051;53.464;49.532;2022-09-09T03:32:39;11.53;80.69
67131;HTU21D;54051;53.464;49.532;2022-09-09T03:35:06;11.53;79.27
67131;HTU21D;54051;53.464;49.532;2022-09-09T03:37:32;11.58;80.16
67131;HTU21D;54051;53.464;49.532;2022-09-09T03:39:58;11.76;79.98
67131;HTU21D;54051;53.464;49.532;2022-09-09T03:42:25;11.90;78.05
67131;HTU21D;54051;53.464;49.532;2022-09-09T03:44:51;11.97;77.63
67131;HTU21D;54051;53.464;49.532;2022-09-09T03:47:19;12.18;78.18
67131;HTU21D;54051;53.464;49.532;2022-09-09T03:49:46;12.36;77.00
67131;HTU21D;54051;53.464;49.532;2022-09-09T03:52:12;12.77;75.21
67131;HTU21D;54051;53.464;49.532;2022-09-09T03:54:38;13.59;71.23
67131;HTU21D;54051;53.464;49.532;2022-09-09T03:57:04;14.28;68.89
67131;HTU21D;54051;53.464;49.532;2022-09-09T03:59:30;15.51;63.48
67131;HTU21D;54051;53.464;49.532;2022-09-09T04:01:56;16.44;59.58
67131;HTU21D;54051;53.464;49.532;2022-09-09T04:04:25;16.81;59.55
67131;HTU21D;54051;53.464;49.532;2022-09-09T04:06:52;18.58;54.29
67131;HTU21D;54051;53.464;49.532;2022-09-09T04:09:18;19.87;49.85
67131;HTU21D;54051;53.464;49.532;2022-09-09T04:11:44;23.90;39.97
67131;HTU21D;54051;53.464;49.532;2022-09-09T04:14:12;27.36;31.09
67131;HTU21D;54051;53.464;49.532;2022-09-09T04:16:38;29.24;28.61
67131;HTU21D;54051;53.464;49.532;2022-09-09T04:19:05;30.86;25.35
67131;HTU21D;54051;53.464;49.532;2022-09-09T04:21:33;29.95;25.69
67131;HTU21D;54051;53.464;49.532;2022-09-09T04:23:59;25.45;34.14
67131;HTU21D;54051;53.464;49.532;2022-09-09T04:26:25;26.45;32.42
67131;HTU21D;54051;53.464;49.532;2022-09-09T04:28:51;27.75;30.52
67131;HTU21D;54051;53.464;49.532;2022-09-09T04:31:19;26.03;32.88
67131;HTU21D;54051;53.464;49.532;2022-09-09T04:33:47;23.69;38.15
67131;HTU21D;54051;53.464;49.532;2022-09-09T04:36:13;21.24;44.31
67131;HTU21D;54051;53.464;49.532;2022-09-09T04:38:39;19.97;48.54
67131;HTU21D;54051;53.464;49.532;2022-09-09T04:41:05;18.76;52.70
67131;HTU21D;54051;53.464;49.532;2022-09-09T04:43:32;18.44;52.36
67131;HTU21D;54051;53.464;49.532;2022-09-09T04:45:58;22.24;41.36
67131;HTU21D;54051;53.464;49.532;2022-09-09T04:48:27;25.62;34.85
67131;HTU21D;54051;53.464;49.532;2022-09-09T04:51:06;26.71;31.57
67131;HTU21D;54051;53.464;49.532;2022-09-09T04:53:33;25.29;35.69
67131;HTU21D;54051;53.464;49.532;2022-09-09T04:56:07;23.09;39.41
67131;HTU21D;54051;53.464;49.532;2022-09-09T04:58:34;20.51;45.18
67131;HTU21D;54051;53.464;49.532;2022-09-09T05:01:07;23.00;40.13
67131;HTU21D;54051;53.464;49.532;2022-09-09T05:03:34;24.13;37.79
67131;HTU21D;54051;53.464;49.532;2022-09-09T05:06:07;28.37;27.66
67131;HTU21D;54051;53.464;49.532;2022-09-09T05:08:35;31.22;24.43
67131;HTU21D;54051;53.464;49.532;2022-09-09T05:11:01;31.63;21.75
67131;HTU21D;54051;53.464;49.532;2022-09-09T05:13:27;28.16;26.80
67131;HTU21D;54051;53.464;49.532;2022-09-09T05:15:54;29.92;25.31
67131;HTU21D;54051;53.464;49.532;2022-09-09T05:18:20;31.48;21.50
67131;HTU21D;54051;53.464;49.532;2022-09-09T05:20:48;32.73;20.41
67131;HTU21D;54051;53.464;49.532;2022-09-09T05:23:14;31.53;20.73
67131;HTU21D;54051;53.464;49.532;2022-09-09T05:25:40;26.63;29.32
67131;HTU21D;54051;53.464;49.532;2022-09-09T05:28:07;22.70;36.36
67131;HTU21D;54051;53.464;49.532;2022-09-09T05:30:33;20.04;45.37
67131;HTU21D;54051;53.464;49.532;2022-09-09T05:32:59;18.63;48.36
67131;HTU21D;54051;53.464;49.532;2022-09-09T05:35:26;17.59;51.59
67131;HTU21D;54051;53.464;49.532;2022-09-09T05:37:52;16.41;51.75
67131;HTU21D;54051;53.464;49.532;2022-09-09T05:40:18;15.66;54.46
67131;HTU21D;54051;53.464;49.532;2022-09-09T05:42:45;15.23;55.81
67131;HTU21D;54051;53.464;49.532;2022-09-09T05:45:11;14.94;58.03
67131;HTU21D;54051;53.464;49.532;2022-09-09T05:47:37;14.72;58.77
67131;HTU21D;54051;53.464;49.532;2022-09-09T05:50:04;14.64;57.90
67131;HTU21D;54051;53.464;49.532;2022-09-09T05:52:30;14.53;58.69
67131;HTU21D;54051;53.464;49.532;2022-09-09T05:54:57;14.44;59.74
67131;HTU21D;54051;53.464;49.532;2022-09-09T05:57:24;14.56;59.48
67131;HTU21D;54051;53.464;49.532;2022-09-09T05:59:50;14.97;57.51
67131;HTU21D;54051;53.464;49.532;2022-09-09T06:02:16;15.22;56.32
67131;HTU21D;54051;53.464;49.532;2022-09-09T06:04:42;15.04;57.72
67131;HTU21D;54051;53.464;49.532;2022-09-09T06:07:08;15.09;58.69
67131;HTU21D;54051;53.464;49.532;2022-09-09T06:09:34;15.15;57.33
67131;HTU21D;54051;53.464;49.532;2022-09-09T06:12:01;15.03;57.12
67131;HTU21D;54051;53.464;49.532;2022-09-09T06:14:27;14.99;57.94
67131;HTU21D;54051;53.464;49.532;2022-09-09T06:16:53;15.26;57.51
67131;HTU21D;54051;53.464;49.532;2022-09-09T06:19:19;15.51;57.40
67131;HTU21D;54051;53.464;49.532;2022-09-09T06:21:46;15.63;56.89
67131;HTU21D;54051;53.464;49.532;2022-09-09T06:24:13;15.80;57.03
67131;HTU21D;54051;53.464;49.532;2022-09-09T06:26:43;15.61;57.13
67131;HTU21D;54051;53.464;49.532;2022-09-09T06:29:09;15.42;58.34
67131;HTU21D;54051;53.464;49.532;2022-09-09T06:31:36;16.01;56.12
67131;HTU21D;54051;53.464;49.532;2022-09-09T06:34:05;16.49;55.23
67131;HTU21D;54051;53.464;49.532;2022-09-09T06:36:33;19.80;46.73
67131;HTU21D;54051;53.464;49.532;2022-09-09T06:38:59;24.65;33.91
67131;HTU21D;54051;53.464;49.532;2022-09-09T06:41:27;23.43;35.92
67131;HTU21D;54051;53.464;49.532;2022-09-09T06:43:54;20.29;42.36
67131;HTU21D;54051;53.464;49.532;2022-09-09T06:46:23;18.07;49.36
67131;HTU21D;54051;53.464;49.532;2022-09-09T06:48:53;16.39;55.94
67131;HTU21D;54051;53.464;49.532;2022-09-09T06:51:29;15.14;61.58
67131;HTU21D;54051;53.464;49.532;2022-09-09T06:53:58;14.63;63.85
67131;HTU21D;54051;53.464;49.532;2022-09-09T06:56:40;14.19;65.04
67131;HTU21D;54051;53.464;49.532;2022-09-09T06:59:08;13.88;63.41
67131;HTU21D;54051;53.464;49.532;2022-09-09T07:01:36;13.70;66.09
67131;HTU21D;54051;53.464;49.532;2022-09-09T07:04:03;13.64;66.64
67131;HTU21D;54051;53.464;49.532;2022-09-09T07:06:35;13.61;67.72
67131;HTU21D;54051;53.464;49.532;2022-09-09T07:09:04;13.63;66.83
67131;HTU21D;54051;53.464;49.532;2022-09-09T07:11:34;13.78;65.53
67131;HTU21D;54051;53.464;49.532;2022-09-09T07:14:03;13.80;65.14
67131;HTU21D;54051;53.464;49.532;2022-09-09T07:16:29;13.92;66.86
67131;HTU21D;54051;53.464;49.532;2022-09-09T07:18:56;14.32;65.58
67131;HTU21D;54051;53.464;49.532;2022-09-09T07:21:27;14.86;65.62
67131;HTU21D;54051;53.464;49.532;2022-09-09T07:23:53;15.29;64.03
67131;HTU21D;54051;53.464;49.532;2022-09-09T07:26:22;15.77;61.92
67131;HTU21D;54051;53.464;49.532;2022-09-09T07:28:49;16.26;60.77
67131;HTU21D;54051;53.464;49.532;2022-09-09T07:31:24;16.64;56.50
67131;HTU21D;54051;53.464;49.532;2022-09-09T07:36:50;17.80;53.97
67131;HTU21D;54051;53.464;49.532;2022-09-09T07:39:16;18.81;51.91
67131;HTU21D;54051;53.464;49.532;2022-09-09T07:41:44;19.63;46.93
67131;HTU21D;54051;53.464;49.532;2022-09-09T07:47:08;24.56;36.37
67131;HTU21D;54051;53.464;49.532;2022-09-09T07:49:34;27.23;29.55
67131;HTU21D;54051;53.464;49.532;2022-09-09T07:52:00;25.45;34.28
67131;HTU21D;54051;53.464;49.532;2022-09-09T07:54:26;23.85;36.02
67131;HTU21D;54051;53.464;49.532;2022-09-09T07:56:52;22.19;39.46
67131;HTU21D;54051;53.464;49.532;2022-09-09T07:59:19;21.62;42.27
67131;HTU21D;54051;53.464;49.532;2022-09-09T08:01:53;21.11;42.07
67131;HTU21D;54051;53.464;49.532;2022-09-09T08:04:21;25.63;32.05
67131;HTU21D;54051;53.464;49.532;2022-09-09T08:06:56;30.39;24.40
67131;HTU21D;54051;53.464;49.532;2022-09-09T08:09:23;32.58;18.96
67131;HTU21D;54051;53.464;49.532;2022-09-09T08:11:55;32.41;19.24
67131;HTU21D;54051;53.464;49.532;2022-09-09T08:14:22;31.12;22.35
67131;HTU21D;54051;53.464;49.532;2022-09-09T08:16:48;28.34;24.90
67131;HTU21D;54051;53.464;49.532;2022-09-09T08:19:16;24.56;34.31
67131;HTU21D;54051;53.464;49.532;2022-09-09T08:21:43;21.72;39.45
67131;HTU21D;54051;53.464;49.532;2022-09-09T08:24:10;19.69;43.16
67131;HTU21D;54051;53.464;49.532;2022-09-09T08:26:39;18.17;48.04
67131;HTU21D;54051;53.464;49.532;2022-09-09T08:29:09;17.20;50.01
67131;HTU21D;54051;53.464;49.532;2022-09-09T08:31:38;16.60;52.20
67131;HTU21D;54051;53.464;49.532;2022-09-09T08:34:05;16.39;54.74
67131;HTU21D;54051;53.464;49.532;2022-09-09T08:36:34;16.35;55.36
67131;HTU21D;54051;53.464;49.532;2022-09-09T08:39:00;16.33;55.55
67131;HTU21D;54051;53.464;49.532;2022-09-09T08:44:10;16.33;50.85
67131;HTU21D;54051;53.464;49.532;2022-09-09T08:52:00;18.42;43.35
67131;HTU21D;54051;53.464;49.532;2022-09-09T08:54:33;18.59;42.04
67131;HTU21D;54051;53.464;49.532;2022-09-09T08:57:00;18.29;41.74
67131;HTU21D;54051;53.464;49.532;2022-09-09T08:59:26;18.13;43.35
67131;HTU21D;54051;53.464;49.532;2022-09-09T09:05:37;19.23;42.64
67131;HTU21D;54051;53.464;49.532;2022-09-09T09:08:26;19.53;41.06
67131;HTU21D;54051;53.464;49.532;2022-09-09T09:10:56;18.93;42.26
67131;HTU21D;54051;53.464;49.532;2022-09-09T09:16:56;18.87;40.42
67131;HTU21D;54051;53.464;49.532;2022-09-09T09:19:23;18.82;41.69
67131;HTU21D;54051;53.464;49.532;2022-09-09T09:22:24;18.41;42.90
67131;HTU21D;54051;53.464;49.532;2022-09-09T09:25:23;18.19;44.54
67131;HTU21D;54051;53.464;49.532;2022-09-09T09:28:12;17.82;46.11
67131;HTU21D;54051;53.464;49.532;2022-09-09T09:30:49;17.90;46.91
67131;HTU21D;54051;53.464;49.532;2022-09-09T09:36:08;18.83;42.50
67131;HTU21D;54051;53.464;49.532;2022-09-09T09:38:36;18.98;42.44
67131;HTU21D;54051;53.464;49.532;2022-09-09T09:41:03;18.74;43.50
67131;HTU21D;54051;53.464;49.532;2022-09-09T09:43:36;18.57;43.81
67131;HTU21D;54051;53.464;49.532;2022-09-09T09:46:20;17.99;44.54
67131;HTU21D;54051;53.464;49.532;2022-09-09T09:49:02;17.47;47.20
67131;HTU21D;54051;53.464;49.532;2022-09-09T09:51:32;17.26;48.67
67131;HTU21D;54051;53.464;49.532;2022-09-09T09:56:35;16.71;49.35
67131;HTU21D;54051;53.464;49.532;2022-09-09T09:59:02;16.34;50.72
67131;HTU21D;54051;53.464;49.532;2022-09-09T10:01:30;16.37;49.81
67131;HTU21D;54051;53.464;49.532;2022-09-09T10:04:28;16.41;49.56
67131;HTU21D;54051;53.464;49.532;2022-09-09T10:06:54;16.77;49.09
67131;HTU21D;54051;53.464;49.532;2022-09-09T10:09:30;16.57;47.26
67131;HTU21D;54051;53.464;49.532;2022-09-09T10:20:35;15.96;49.23
67131;HTU21D;54051;53.464;49.532;2022-09-09T10:23:14;15.89;48.80
67131;HTU21D;54051;53.464;49.532;2022-09-09T10:25:58;15.92;49.69
67131;HTU21D;54051;53.464;49.532;2022-09-09T10:33:50;17.02;46.35
67131;HTU21D;54051;53.464;49.532;2022-09-09T10:36:21;17.32;46.02
67131;HTU21D;54051;53.464;49.532;2022-09-09T10:38:57;17.54;46.25
67131;HTU21D;54051;53.464;49.532;2022-09-09T11:00:18;16.17;52.05
67131;HTU21D;54051;53.464;49.532;2022-09-09T11:02:50;15.49;54.59
67131;HTU21D;54051;53.464;49.532;2022-09-09T11:05:44;15.14;55.44
67131;HTU21D;54051;53.464;49.532;2022-09-09T11:08:15;14.94;55.23
67131;HTU21D;54051;53.464;49.532;2022-09-09T11:10:48;14.82;59.98
67131;HTU21D;54051;53.464;49.532;2022-09-09T11:21:27;15.82;57.68
67131;HTU21D;54051;53.464;49.532;2022-09-09T11:24:10;16.13;55.45
67131;HTU21D;54051;53.464;49.532;2022-09-09T11:40:32;16.31;52.73
67131;HTU21D;54051;53.464;49.532;2022-09-09T11:45:34;15.98;53.94
67131;HTU21D;54051;53.464;49.532;2022-09-09T11:48:02;16.13;52.89
67131;HTU21D;54051;53.464;49.532;2022-09-09T11:50:34;16.43;50.43
67131;HTU21D;54051;53.464;49.532;2022-09-09T11:55:39;16.20;52.95
67131;HTU21D;54051;53.464;49.532;2022-09-09T11:58:15;15.41;55.52
67131;HTU21D;54051;53.464;49.532;2022-09-09T12:00:44;14.82;57.24
67131;HTU21D;54051;53.464;49.532;2022-09-09T12:06:26;14.71;56.50
67131;HTU21D;54051;53.464;49.532;2022-09-09T12:09:05;14.94;55.84
67131;HTU21D;54051;53.464;49.532;2022-09-09T12:11:32;15.00;54.97
67131;HTU21D;54051;53.464;49.532;2022-09-09T12:13:59;14.82;53.87
67131;HTU21D;54051;53.464;49.532;2022-09-09T12:16:33;14.69;53.10
67131;HTU21D;54051;53.464;49.532;2022-09-09T12:19:15;14.54;53.82
67131;HTU21D;54051;53.464;49.532;2022-09-09T12:22:06;14.50;54.97
67131;HTU21D;54051;53.464;49.532;2022-09-09T12:24:43;14.45;55.71
67131;HTU21D;54051;53.464;49.532;2022-09-09T12:27:28;14.41;56.80
67131;HTU21D;54051;53.464;49.532;2022-09-09T12:32:29;14.67;57.42
67131;HTU21D;54051;53.464;49.532;2022-09-09T12:35:03;14.88;57.57
67131;HTU21D;54051;53.464;49.532;2022-09-09T12:37:57;15.22;57.72
67131;HTU21D;54051;53.464;49.532;2022-09-09T12:40:29;15.53;57.77
67131;HTU21D;54051;53.464;49.532;2022-09-09T12:42:57;15.48;57.63
67131;HTU21D;54051;53.464;49.532;2022-09-09T12:45:26;15.38;57.43
67131;HTU21D;54051;53.464;49.532;2022-09-09T12:47:57;15.51;60.44
67131;HTU21D;54051;53.464;49.532;2022-09-09T12:50:27;15.62;60.43
67131;HTU21D;54051;53.464;49.532;2022-09-09T12:52:57;15.83;61.13
67131;HTU21D;54051;53.464;49.532;2022-09-09T12:55:31;16.17;60.73
67131;HTU21D;54051;53.464;49.532;2022-09-09T12:58:03;16.41;58.84
67131;HTU21D;54051;53.464;49.532;2022-09-09T13:00:32;16.26;57.74
67131;HTU21D;54051;53.464;49.532;2022-09-09T13:03:14;16.04;58.96
67131;HTU21D;54051;53.464;49.532;2022-09-09T13:05:41;15.85;61.69
67131;HTU21D;54051;53.464;49.532;2022-09-09T13:08:12;15.62;59.39
67131;HTU21D;54051;53.464;49.532;2022-09-09T13:10:44;15.23;60.22
67131;HTU21D;54051;53.464;49.532;2022-09-09T13:13:21;14.91;60.72
67131;HTU21D;54051;53.464;49.532;2022-09-09T13:15:53;14.56;61.64
67131;HTU21D;54051;53.464;49.532;2022-09-09T13:18:24;14.20;62.89
67131;HTU21D;54051;53.464;49.532;2022-09-09T13:20:52;13.96;64.79
67131;HTU21D;54051;53.464;49.532;2022-09-09T13:23:20;13.79;65.67
67131;HTU21D;54051;53.464;49.532;2022-09-09T13:25:54;13.78;65.73
67131;HTU21D;54051;53.464;49.532;2022-09-09T13:28:23;13.82;65.57
67131;HTU21D;54051;53.464;49.532;2022-09-09T13:30:58;13.90;66.19
67131;HTU21D;54051;53.464;49.532;2022-09-09T13:33:38;13.88;66.43
67131;HTU21D;54051;53.464;49.532;2022-09-09T13:36:07;13.94;66.58
67131;HTU21D;54051;53.464;49.532;2022-09-09T13:38:57;13.68;67.59
67131;HTU21D;54051;53.464;49.532;2022-09-09T13:41:43;13.41;68.54
67131;HTU21D;54051;53.464;49.532;2022-09-09T13:44:26;13.35;68.54
67131;HTU21D;54051;53.464;49.532;2022-09-09T13:47:20;13.17;69.41
67131;HTU21D;54051;53.464;49.532;2022-09-09T13:49:47;13.06;69.42
67131;HTU21D;54051;53.464;49.532;2022-09-09T13:52:17;13.05;70.61
67131;HTU21D;54051;53.464;49.532;2022-09-09T13:54:50;13.04;67.77
67131;HTU21D;54051;53.464;49.532;2022-09-09T13:57:19;12.89;64.90
67131;HTU21D;54051;53.464;49.532;2022-09-09T13:59:46;12.86;65.74
67131;HTU21D;54051;53.464;49.532;2022-09-09T14:02:13;12.74;66.77
67131;HTU21D;54051;53.464;49.532;2022-09-09T14:04:47;12.64;67.85
67131;HTU21D;54051;53.464;49.532;2022-09-09T14:07:18;12.55;68.61
67131;HTU21D;54051;53.464;49.532;2022-09-09T14:09:44;12.45;69.42
67131;HTU21D;54051;53.464;49.532;2022-09-09T14:12:15;12.36;70.89
67131;HTU21D;54051;53.464;49.532;2022-09-09T14:14:42;12.32;71.19
67131;HTU21D;54051;53.464;49.532;2022-09-09T14:17:08;12.29;71.15
67131;HTU21D;54051;53.464;49.532;2022-09-09T14:19:35;12.21;71.44
67131;HTU21D;54051;53.464;49.532;2022-09-09T14:22:01;12.16;72.04
67131;HTU21D;54051;53.464;49.532;2022-09-09T14:24:27;12.14;72.38
67131;HTU21D;54051;53.464;49.532;2022-09-09T14:26:54;12.13;72.25
67131;HTU21D;54051;53.464;49.532;2022-09-09T14:29:20;12.07;72.18
67131;HTU21D;54051;53.464;49.532;2022-09-09T14:31:48;12.12;71.57
67131;HTU21D;54051;53.464;49.532;2022-09-09T14:34:15;12.10;71.40
67131;HTU21D;54051;53.464;49.532;2022-09-09T14:36:43;12.08;70.89
67131;HTU21D;54051;53.464;49.532;2022-09-09T14:39:15;12.04;71.78
67131;HTU21D;54051;53.464;49.532;2022-09-09T14:41:41;12.05;71.75
67131;HTU21D;54051;53.464;49.532;2022-09-09T14:44:07;12.06;71.96
67131;HTU21D;54051;53.464;49.532;2022-09-09T14:46:34;12.06;72.48
67131;HTU21D;54051;53.464;49.532;2022-09-09T14:49:00;12.17;72.77
67131;HTU21D;54051;53.464;49.532;2022-09-09T14:51:26;12.23;72.47
67131;HTU21D;54051;53.464;49.532;2022-09-09T14:53:58;12.19;72.93
67131;HTU21D;54051;53.464;49.532;2022-09-09T14:56:27;12.18;72.73
67131;HTU21D;54051;53.464;49.532;2022-09-09T14:58:54;12.13;72.71
67131;HTU21D;54051;53.464;49.532;2022-09-09T15:01:21;12.11;73.14
67131;HTU21D;54051;53.464;49.532;2022-09-09T15:04:01;12.11;73.55
67131;HTU21D;54051;53.464;49.532;2022-09-09T15:06:29;12.12;72.82
67131;HTU21D;54051;53.464;49.532;2022-09-09T15:08:55;12.10;72.94
67131;HTU21D;54051;53.464;49.532;2022-09-09T15:11:29;12.14;72.97
67131;HTU21D;54051;53.464;49.532;2022-09-09T15:14:00;12.15;73.70
67131;HTU21D;54051;53.464;49.532;2022-09-09T15:16:27;12.07;74.52
67131;HTU21D;54051;53.464;49.532;2022-09-09T15:18:55;11.98;76.18
67131;HTU21D;54051;53.464;49.532;2022-09-09T15:21:24;11.91;75.99
67131;HTU21D;54051;53.464;49.532;2022-09-09T15:23:50;11.86;76.33
67131;HTU21D;54051;53.464;49.532;2022-09-09T15:26:17;11.83;75.87
67131;HTU21D;54051;53.464;49.532;2022-09-09T15:28:47;11.74;76.20
67131;HTU21D;54051;53.464;49.532;2022-09-09T15:31:26;11.68;76.81
67131;HTU21D;54051;53.464;49.532;2022-09-09T15:33:59;11.60;76.05
67131;HTU21D;54051;53.464;49.532;2022-09-09T15:36:30;11.52;76.91
67131;HTU21D;54051;53.464;49.532;2022-09-09T15:38:58;11.51;76.34
67131;HTU21D;54051;53.464;49.532;2022-09-09T15:41:25;11.47;76.05
67131;HTU21D;54051;53.464;49.532;2022-09-09T15:43:52;11.37;76.93
67131;HTU21D;54051;53.464;49.532;2022-09-09T15:49:20;11.26;77.14
67131;HTU21D;54051;53.464;49.532;2022-09-09T15:51:47;11.20;77.63
67131;HTU21D;54051;53.464;49.532;2022-09-09T15:54:17;11.15;77.76
67131;HTU21D;54051;53.464;49.532;2022-09-09T15:56:45;11.05;77.98
67131;HTU21D;54051;53.464;49.532;2022-09-09T15:59:12;11.01;78.14
67131;HTU21D;54051;53.464;49.532;2022-09-09T16:01:38;10.94;78.84
67131;HTU21D;54051;53.464;49.532;2022-09-09T16:04:05;10.93;78.82
67131;HTU21D;54051;53.464;49.532;2022-09-09T16:06:31;10.93;79.17
67131;HTU21D;54051;53.464;49.532;2022-09-09T16:08:58;10.94;79.51
67131;HTU21D;54051;53.464;49.532;2022-09-09T16:11:31;10.93;78.93
67131;HTU21D;54051;53.464;49.532;2022-09-09T16:13:58;10.95;78.92
67131;HTU21D;54051;53.464;49.532;2022-09-09T16:16:28;10.97;79.40
67131;HTU21D;54051;53.464;49.532;2022-09-09T16:18:59;10.99;78.78
67131;HTU21D;54051;53.464;49.532;2022-09-09T16:21:31;10.94;79.21
67131;HTU21D;54051;53.464;49.532;2022-09-09T16:23:59;10.92;79.44
67131;HTU21D;54051;53.464;49.532;2022-09-09T16:26:26;10.87;79.14
67131;HTU21D;54051;53.464;49.532;2022-09-09T16:28:53;10.84;79.84
67131;HTU21D;54051;53.464;49.532;2022-09-09T16:31:23;10.87;80.05
67131;HTU21D;54051;53.464;49.532;2022-09-09T16:33:49;10.92;79.95
67131;HTU21D;54051;53.464;49.532;2022-09-09T16:36:29;10.95;79.53
67131;HTU21D;54051;53.464;49.532;2022-09-09T16:38:58;10.97;79.44
67131;HTU21D;54051;53.464;49.532;2022-09-09T16:41:26;10.99;79.21
67131;HTU21D;54051;53.464;49.532;2022-09-09T16:44:04;10.98;79.27
67131;HTU21D;54051;53.464;49.532;2022-09-09T16:46:32;11.01;79.88
67131;HTU21D;54051;53.464;49.532;2022-09-09T16:49:01;11.02;79.08
67131;HTU21D;54051;53.464;49.532;2022-09-09T16:51:30;11.02;79.23
67131;HTU21D;54051;53.464;49.532;2022-09-09T16:53:58;10.99;80.10
67131;HTU21D;54051;53.464;49.532;2022-09-09T16:56:27;11.00;80.11
67131;HTU21D;54051;53.464;49.532;2022-09-09T16:58:58;10.99;80.69
67131;HTU21D;54051;53.464;49.532;2022-09-09T17:01:29;11.00;80.40
67131;HTU21D;54051;53.464;49.532;2022-09-09T17:03:59;11.01;79.99
67131;HTU21D;54051;53.464;49.532;2022-09-09T17:06:27;11.01;80.00
67131;HTU21D;54051;53.464;49.532;2022-09-09T17:09:03;10.96;80.16
67131;HTU21D;54051;53.464;49.532;2022-09-09T17:11:30;11.00;80.34
67131;HTU21D;54051;53.464;49.532;2022-09-09T17:13:57;11.04;80.14
67131;HTU21D;54051;53.464;49.532;2022-09-09T17:16:27;11.07;79.69
67131;HTU21D;54051;53.464;49.532;2022-09-09T17:18:54;11.03;79.84
67131;HTU21D;54051;53.464;49.532;2022-09-09T17:21:22;11.01;79.85
67131;HTU21D;54051;53.464;49.532;2022-09-09T17:23:49;11.01;79.95
67131;HTU21D;54051;53.464;49.532;2022-09-09T17:26:18;11.02;79.97
67131;HTU21D;54051;53.464;49.532;2022-09-09T17:28:44;11.05;79.67
67131;HTU21D;54051;53.464;49.532;2022-09-09T17:31:17;11.01;79.75
67131;HTU21D;54051;53.464;49.532;2022-09-09T17:33:45;11.07;79.61
67131;HTU21D;54051;53.464;49.532;2022-09-09T17:36:15;11.09;78.99
67131;HTU21D;54051;53.464;49.532;2022-09-09T17:38:42;11.04;79.18
67131;HTU21D;54051;53.464;49.532;2022-09-09T17:43:35;10.92;79.81